createdAt,value
2018-09-14T00:01:25.546Z,17.59
2018-09-14T00:04:30.522Z,17.51
2018-09-14T00:07:35.794Z,17.48
2018-09-14T00:10:40.737Z,17.42
2018-09-14T00:13:45.891Z,17.48
2018-09-14T00:16:50.869Z,17.50
2018-09-14T00:19:55.889Z,17.40
2018-09-14T00:23:00.817Z,17.38
2018-09-14T00:26:05.940Z,17.32
2018-09-14T00:29:10.854Z,17.35
2018-09-14T00:32:15.781Z,17.34
2018-09-14T00:35:20.725Z,17.38
2018-09-14T00:38:25.654Z,17.38
2018-09-14T00:41:30.593Z,17.36
2018-09-14T00:44:35.540Z,17.28
2018-09-14T00:47:40.496Z,17.33
2018-09-14T00:50:45.500Z,17.30
2018-09-14T00:53:50.445Z,17.31
2018-09-14T00:56:55.393Z,17.34
2018-09-14T01:00:00.346Z,17.39
2018-09-14T01:03:05.333Z,17.41
2018-09-14T01:06:10.283Z,17.42
2018-09-14T01:09:20.969Z,17.41
2018-09-14T01:12:25.983Z,17.48
2018-09-14T01:15:30.953Z,17.45
2018-09-14T01:18:35.923Z,17.45
2018-09-14T01:21:40.909Z,17.36
2018-09-14T01:24:45.874Z,17.39
2018-09-14T01:27:50.834Z,17.29
2018-09-14T01:30:55.809Z,17.28
2018-09-14T01:34:00.749Z,17.30
2018-09-14T01:37:05.731Z,17.29
2018-09-14T01:40:10.689Z,17.35
2018-09-14T01:43:15.637Z,17.37
2018-09-14T01:46:20.589Z,17.33
2018-09-14T01:49:25.516Z,17.34
2018-09-14T01:52:30.449Z,17.41
2018-09-14T01:55:35.400Z,17.41
2018-09-14T01:58:40.330Z,17.37
2018-09-14T02:01:45.273Z,17.26
2018-09-14T02:04:50.249Z,17.31
2018-09-14T02:07:55.172Z,17.30
2018-09-14T02:11:00.105Z,17.29
2018-09-14T02:14:05.053Z,17.30
2018-09-14T02:17:09.998Z,17.25
2018-09-14T02:20:16.111Z,17.13
2018-09-14T02:23:21.085Z,17.20
2018-09-14T02:26:26.038Z,17.12
2018-09-14T02:29:30.967Z,17.15
2018-09-14T02:32:36.358Z,17.00
2018-09-14T02:35:41.285Z,17.04
2018-09-14T02:38:46.226Z,17.11
2018-09-14T02:41:51.174Z,17.00
2018-09-14T02:44:56.093Z,17.00
2018-09-14T02:48:01.099Z,16.90
2018-09-14T02:51:06.057Z,16.89
2018-09-14T02:54:11.030Z,16.97
2018-09-14T02:57:16.007Z,16.89
2018-09-14T03:00:20.932Z,16.75
2018-09-14T03:03:25.869Z,16.87
2018-09-14T03:06:30.796Z,16.94
2018-09-14T03:09:35.757Z,16.92
2018-09-14T03:12:40.697Z,16.72
2018-09-14T03:15:45.672Z,16.81
2018-09-14T03:18:50.602Z,16.81
2018-09-14T03:21:55.531Z,16.79
2018-09-14T03:25:00.470Z,16.88
2018-09-14T03:28:05.463Z,16.94
2018-09-14T03:31:10.418Z,16.98
2018-09-14T03:34:15.361Z,16.95
2018-09-14T03:37:20.284Z,16.88
2018-09-14T03:40:25.222Z,16.77
2018-09-14T03:43:30.167Z,16.70
2018-09-14T03:46:35.114Z,16.70
2018-09-14T03:49:40.052Z,16.61
2018-09-14T03:52:44.980Z,16.48
2018-09-14T03:55:49.928Z,16.44
2018-09-14T03:58:54.872Z,16.35
2018-09-14T04:01:59.813Z,16.35
2018-09-14T04:05:04.825Z,16.31
2018-09-14T04:08:09.795Z,16.36
2018-09-14T04:11:14.741Z,16.35
2018-09-14T04:14:19.669Z,16.50
2018-09-14T04:17:24.591Z,16.45
2018-09-14T04:20:29.525Z,16.40
2018-09-14T04:23:34.575Z,16.34
2018-09-14T04:26:39.421Z,16.26
2018-09-14T04:29:44.353Z,16.39
2018-09-14T04:32:49.269Z,16.41
2018-09-14T04:35:54.206Z,16.46
2018-09-14T04:38:59.156Z,16.50
2018-09-14T04:42:04.092Z,16.52
2018-09-14T04:45:09.023Z,16.49
2018-09-14T04:48:13.954Z,16.59
2018-09-14T04:51:18.939Z,16.67
2018-09-14T04:54:23.853Z,16.73
2018-09-14T04:57:28.865Z,16.80
2018-09-14T05:00:33.726Z,16.75
2018-09-14T05:03:38.681Z,16.74
2018-09-14T05:06:43.625Z,16.78
2018-09-14T05:09:48.586Z,16.75
2018-09-14T05:12:53.493Z,16.76
2018-09-14T05:15:58.414Z,16.76
2018-09-14T05:19:03.401Z,16.67
2018-09-14T05:22:08.359Z,16.67
2018-09-14T05:25:13.436Z,16.69
2018-09-14T05:28:18.354Z,16.65
2018-09-14T05:31:23.524Z,16.65
2018-09-14T05:34:28.582Z,16.72
2018-09-14T05:37:33.690Z,16.76
2018-09-14T05:40:38.641Z,16.78
2018-09-14T05:43:43.592Z,16.82
2018-09-14T05:46:48.569Z,16.67
2018-09-14T05:49:53.546Z,16.63
2018-09-14T05:52:58.534Z,16.66
2018-09-14T05:56:03.533Z,16.76
2018-09-14T05:59:08.498Z,16.85
2018-09-14T06:02:13.511Z,16.86
2018-09-14T06:05:18.525Z,16.86
2018-09-14T06:08:23.488Z,16.82
2018-09-14T06:11:28.466Z,16.86
2018-09-14T06:14:33.842Z,16.94
2018-09-14T06:17:38.817Z,17.06
2018-09-14T06:20:43.808Z,17.19
2018-09-14T06:23:48.946Z,17.30
2018-09-14T06:26:53.946Z,17.44
2018-09-14T06:29:59.129Z,17.54
2018-09-14T06:33:04.074Z,17.52
2018-09-14T06:36:09.033Z,17.70
2018-09-14T06:39:13.969Z,17.70
2018-09-14T06:42:18.934Z,17.66
2018-09-14T06:45:24.068Z,17.77
2018-09-14T06:48:28.949Z,17.81
2018-09-14T06:51:35.117Z,17.45
2018-09-14T06:54:40.070Z,17.37
2018-09-14T06:57:45.021Z,17.09
2018-09-14T07:00:50.149Z,16.89
2018-09-14T07:03:55.242Z,17.00
2018-09-14T07:07:00.219Z,16.99
2018-09-14T07:10:05.184Z,16.99
2018-09-14T07:13:10.122Z,17.18
2018-09-14T07:16:15.061Z,17.37
2018-09-14T07:19:19.993Z,17.48
2018-09-14T07:22:24.971Z,17.66
2018-09-14T07:25:29.881Z,17.75
2018-09-14T07:28:34.860Z,17.92
2018-09-14T07:31:39.910Z,18.11
2018-09-14T07:34:44.770Z,18.14
2018-09-14T07:37:49.720Z,18.25
2018-09-14T07:40:54.670Z,18.29
2018-09-14T07:43:59.624Z,18.56
2018-09-14T07:47:04.822Z,18.96
2018-09-14T07:50:09.774Z,18.95
2018-09-14T07:53:14.741Z,19.26
2018-09-14T07:56:19.788Z,19.49
2018-09-14T07:59:24.733Z,19.58
2018-09-14T08:02:29.716Z,19.60
2018-09-14T08:05:34.656Z,19.63
2018-09-14T08:08:39.665Z,19.59
2018-09-14T08:11:44.621Z,19.49
2018-09-14T08:14:49.564Z,19.20
2018-09-14T08:17:54.516Z,19.18
2018-09-14T08:20:59.505Z,18.98
2018-09-14T08:24:04.425Z,19.34
2018-09-14T08:27:09.417Z,19.52
2018-09-14T08:30:14.318Z,19.83
2018-09-14T08:33:19.252Z,20.15
2018-09-14T08:36:24.193Z,20.14
2018-09-14T08:39:29.113Z,20.17
2018-09-14T08:42:34.297Z,20.21
2018-09-14T08:45:39.245Z,20.17
2018-09-14T08:48:44.185Z,20.27
2018-09-14T08:51:49.129Z,20.28
2018-09-14T08:54:54.108Z,20.33
2018-09-14T08:57:59.329Z,20.69
2018-09-14T09:01:04.649Z,20.94
2018-09-14T09:04:10.679Z,20.96
2018-09-14T09:07:15.718Z,21.08
2018-09-14T09:10:20.689Z,21.15
2018-09-14T09:13:25.766Z,21.02
2018-09-14T09:16:30.741Z,21.21
2018-09-14T09:19:35.859Z,21.43
2018-09-14T09:22:40.825Z,21.33
2018-09-14T09:25:45.904Z,20.96
2018-09-14T09:28:50.855Z,20.88
2018-09-14T09:31:55.910Z,21.06
2018-09-14T09:35:00.880Z,21.27
2018-09-14T09:38:05.934Z,20.66
2018-09-14T09:41:10.893Z,20.97
2018-09-14T09:44:15.858Z,21.39
2018-09-14T09:47:20.869Z,21.16
2018-09-14T09:50:25.885Z,21.41
2018-09-14T09:53:30.821Z,21.91
2018-09-14T09:56:35.927Z,22.20
2018-09-14T10:03:27.183Z,22.05
2018-09-14T10:06:32.058Z,22.06
2018-09-14T10:09:36.989Z,22.18
2018-09-14T10:12:41.925Z,22.25
2018-09-14T10:15:46.858Z,22.36
2018-09-14T10:18:51.823Z,22.36
2018-09-14T10:21:56.766Z,22.51
2018-09-14T10:25:01.684Z,22.26
2018-09-14T10:28:06.653Z,22.40
2018-09-14T10:31:11.575Z,23.02
2018-09-14T10:34:16.513Z,23.30
2018-09-14T10:37:21.466Z,23.34
2018-09-14T10:40:26.436Z,23.59
2018-09-14T10:43:31.362Z,23.80
2018-09-14T10:46:36.305Z,24.17
2018-09-14T10:49:41.477Z,24.23
2018-09-14T10:52:46.533Z,24.43
2018-09-14T10:55:51.663Z,24.51
2018-09-14T10:58:56.729Z,24.48
2018-09-14T11:02:01.762Z,24.88
2018-09-14T11:05:06.900Z,25.18
2018-09-14T11:08:11.933Z,25.52
2018-09-14T11:11:16.937Z,25.97
2018-09-14T11:14:21.990Z,26.20
2018-09-14T11:17:27.911Z,25.69
2018-09-14T11:20:33.029Z,25.24
2018-09-14T11:23:38.270Z,25.38
2018-09-14T11:26:43.302Z,25.78
2018-09-14T11:29:48.322Z,25.90
2018-09-14T11:32:53.328Z,25.88
2018-09-14T11:35:58.295Z,25.76
2018-09-14T11:39:05.456Z,25.89
2018-09-14T11:42:10.437Z,26.26
2018-09-14T11:45:15.528Z,26.27
2018-09-14T11:48:20.473Z,26.18
2018-09-14T11:51:25.467Z,25.94
2018-09-14T11:54:31.189Z,25.50
2018-09-14T11:57:36.360Z,24.57
2018-09-14T12:00:41.309Z,23.86
2018-09-14T12:03:46.478Z,23.40
2018-09-14T12:06:51.488Z,23.14
2018-09-14T12:09:56.513Z,23.05
2018-09-14T12:13:01.549Z,23.28
2018-09-14T12:16:06.625Z,23.67
2018-09-14T12:19:11.634Z,23.93
2018-09-14T12:22:16.644Z,23.91
2018-09-14T12:25:21.749Z,23.74
2018-09-14T12:28:26.726Z,23.57
2018-09-14T12:31:31.656Z,23.24
2018-09-14T12:34:36.609Z,23.43
2018-09-14T12:37:41.573Z,23.78
2018-09-14T12:40:46.587Z,24.13
2018-09-14T12:43:51.565Z,24.26
2018-09-14T12:46:56.521Z,24.47
2018-09-14T12:50:01.773Z,24.70
2018-09-14T12:53:07.022Z,24.76
2018-09-14T12:56:12.071Z,24.60
2018-09-14T12:59:17.120Z,24.59
2018-09-14T13:02:22.536Z,24.43
2018-09-14T13:05:27.609Z,24.27
2018-09-14T13:08:32.626Z,24.30
2018-09-14T13:11:38.125Z,24.01
2018-09-14T13:14:43.143Z,23.96
2018-09-14T13:17:48.361Z,23.72
2018-09-14T13:20:53.518Z,23.89
2018-09-14T13:23:58.547Z,24.08
2018-09-14T13:27:03.546Z,24.20
2018-09-14T13:30:08.654Z,24.42
2018-09-14T13:33:13.682Z,24.48
2018-09-14T13:36:18.709Z,24.24
2018-09-14T13:39:24.299Z,23.85
2018-09-14T13:42:29.398Z,23.98
2018-09-14T13:45:34.406Z,24.04
2018-09-14T13:48:39.413Z,24.05
2018-09-14T13:51:44.476Z,24.25
2018-09-14T13:54:49.478Z,24.20
2018-09-14T13:57:54.578Z,24.13
2018-09-14T14:00:59.680Z,24.26
2018-09-14T14:04:04.913Z,23.97
2018-09-14T14:07:09.888Z,24.00
2018-09-14T14:10:14.945Z,24.11
2018-09-14T14:13:19.898Z,23.75
2018-09-14T14:16:24.929Z,23.80
2018-09-14T14:19:29.896Z,23.29
2018-09-14T14:22:34.878Z,23.15
2018-09-14T14:25:39.891Z,23.12
2018-09-14T14:28:44.880Z,23.03
2018-09-14T14:31:50.038Z,22.99
2018-09-14T14:34:55.042Z,22.75
2018-09-14T14:38:00.019Z,22.60
2018-09-14T14:41:05.058Z,22.72
2018-09-14T14:44:10.066Z,22.85
2018-09-14T14:47:15.127Z,22.96
2018-09-14T14:50:20.425Z,22.97
2018-09-14T14:53:26.333Z,22.78
2018-09-14T14:56:32.504Z,22.59
2018-09-14T14:59:37.579Z,22.77
2018-09-14T15:02:42.559Z,22.85
2018-09-14T15:05:47.546Z,22.87
2018-09-14T15:08:52.541Z,23.02
2018-09-14T15:11:57.509Z,22.93
2018-09-14T15:15:02.493Z,23.07
2018-09-14T15:18:07.494Z,22.93
2018-09-14T15:21:12.533Z,23.03
2018-09-14T15:24:17.516Z,23.36
2018-09-14T15:27:22.493Z,23.43
2018-09-14T15:30:27.470Z,23.40
2018-09-14T15:33:32.525Z,23.38
2018-09-14T15:36:37.637Z,23.40
2018-09-14T15:39:42.678Z,23.46
2018-09-14T15:42:48.157Z,23.33
2018-09-14T15:45:53.201Z,23.34
2018-09-14T15:48:58.310Z,23.33
2018-09-14T15:52:03.367Z,23.39
2018-09-14T15:55:08.421Z,23.40
2018-09-14T15:58:14.069Z,23.41
2018-09-14T16:01:19.385Z,23.38
2018-09-14T16:04:24.569Z,23.14
2018-09-14T16:07:29.671Z,22.97
2018-09-14T16:10:34.650Z,22.96
2018-09-14T16:13:39.659Z,23.00
2018-09-14T16:16:44.624Z,22.98
2018-09-14T16:19:49.825Z,23.01
2018-09-14T16:22:54.817Z,22.81
2018-09-14T16:25:59.770Z,22.73
2018-09-14T16:32:23.221Z,22.69
2018-09-14T16:35:28.235Z,22.56
2018-09-14T16:38:33.391Z,22.55
2018-09-14T16:41:38.593Z,22.49
2018-09-14T16:47:55.937Z,22.37
2018-09-14T16:51:00.975Z,22.31
2018-09-14T16:54:06.167Z,22.28
2018-09-14T16:57:11.168Z,22.29
2018-09-14T17:00:16.557Z,22.30
2018-09-14T17:03:21.823Z,22.31
2018-09-14T17:06:26.788Z,22.26
2018-09-14T17:09:31.919Z,22.17
2018-09-14T17:12:37.110Z,22.15
2018-09-14T17:15:42.057Z,22.03
2018-09-14T17:18:47.570Z,21.98
2018-09-14T17:21:52.686Z,21.96
2018-09-14T17:24:57.946Z,21.86
2018-09-14T17:28:03.208Z,21.79
2018-09-14T17:31:08.350Z,21.66
2018-09-14T17:34:13.394Z,21.45
2018-09-14T17:37:18.426Z,21.20
2018-09-14T17:40:23.872Z,21.14
2018-09-14T17:43:28.860Z,21.05
2018-09-14T17:46:33.863Z,21.08
2018-09-14T17:49:38.813Z,21.10
2018-09-14T17:52:43.910Z,21.15
2018-09-14T17:55:48.977Z,21.16
2018-09-14T17:58:53.917Z,21.10
2018-09-14T18:01:58.867Z,20.99
2018-09-14T18:05:04.173Z,20.94
2018-09-14T18:08:09.113Z,20.88
2018-09-14T18:11:14.429Z,20.77
2018-09-14T18:14:19.390Z,20.75
2018-09-14T18:17:24.632Z,20.70
2018-09-14T18:20:29.778Z,20.62
2018-09-14T18:23:34.861Z,20.49
2018-09-14T18:26:39.793Z,20.42
2018-09-14T18:29:45.223Z,20.31
2018-09-14T18:32:50.414Z,20.17
2018-09-14T18:35:55.477Z,20.06
2018-09-14T18:39:00.777Z,19.97
2018-09-14T18:42:05.881Z,19.91
2018-09-14T18:45:12.286Z,19.86
2018-09-14T18:48:17.402Z,19.75
2018-09-14T18:51:22.422Z,19.63
2018-09-14T18:54:27.417Z,19.52
2018-09-14T18:57:32.373Z,19.40
2018-09-14T19:00:37.731Z,19.11
2018-09-14T19:03:42.720Z,18.80
2018-09-14T19:06:47.715Z,18.59
2018-09-14T19:09:53.212Z,18.64
2018-09-14T19:12:58.189Z,18.41
2018-09-14T19:16:03.459Z,18.23
2018-09-14T19:19:08.867Z,18.39
2018-09-14T19:22:14.034Z,18.48
2018-09-14T19:25:19.313Z,18.54
2018-09-14T19:28:24.484Z,18.55
2018-09-14T19:31:29.498Z,18.37
2018-09-14T19:37:51.261Z,18.10
2018-09-14T19:40:56.601Z,18.16
2018-09-14T19:44:01.913Z,18.20
2018-09-14T19:47:07.321Z,18.15
2018-09-14T19:50:12.791Z,18.03
2018-09-14T19:53:17.914Z,18.03
2018-09-14T19:56:23.013Z,18.02
2018-09-14T19:59:28.285Z,17.99
2018-09-14T20:02:33.257Z,17.91
2018-09-14T20:05:38.521Z,17.51
2018-09-14T20:08:43.513Z,17.48
2018-09-14T20:11:48.535Z,17.55
2018-09-14T20:14:53.905Z,17.50
2018-09-14T20:17:58.862Z,17.38
2018-09-14T20:21:04.214Z,17.26
2018-09-14T20:24:09.191Z,17.16
2018-09-14T20:27:14.138Z,17.14
2018-09-14T20:30:19.091Z,17.11
2018-09-14T20:33:24.194Z,17.11
2018-09-14T20:36:29.144Z,17.07
2018-09-14T20:39:34.590Z,17.03
2018-09-14T20:42:39.577Z,16.86
2018-09-14T20:45:44.936Z,16.72
2018-09-14T20:48:49.905Z,16.70
2018-09-14T20:51:55.202Z,16.67
2018-09-14T20:55:00.192Z,16.63
2018-09-14T20:58:05.370Z,16.53
2018-09-14T21:01:10.404Z,16.49
2018-09-14T21:04:15.555Z,16.22
2018-09-14T21:07:20.618Z,15.92
2018-09-14T21:10:25.715Z,15.84
2018-09-14T21:13:30.754Z,15.80
2018-09-14T21:16:35.812Z,15.77
2018-09-14T21:19:40.856Z,15.90
2018-09-14T21:22:45.987Z,16.00
2018-09-14T21:25:50.904Z,15.81
2018-09-14T21:28:55.878Z,15.80
2018-09-14T21:32:01.225Z,15.61
2018-09-14T21:35:06.261Z,15.68
2018-09-14T21:38:11.401Z,15.78
2018-09-14T21:41:16.646Z,15.75
2018-09-14T21:44:21.893Z,15.61
2018-09-14T21:47:27.157Z,15.57
2018-09-14T21:50:32.130Z,15.71
2018-09-14T21:53:37.571Z,15.78
2018-09-14T21:56:42.827Z,15.87
2018-09-14T22:03:28.975Z,15.96
2018-09-14T22:06:34.053Z,15.97
2018-09-14T22:09:39.224Z,16.00
2018-09-14T22:12:44.757Z,16.01
2018-09-14T22:15:49.948Z,16.00
2018-09-14T22:18:55.078Z,15.93
2018-09-14T22:22:00.099Z,15.86
2018-09-14T22:25:05.290Z,15.76
2018-09-14T22:28:10.266Z,15.68
2018-09-14T22:31:15.242Z,15.65
2018-09-14T22:34:20.381Z,15.29
2018-09-14T22:37:25.391Z,15.09
2018-09-14T22:40:30.360Z,15.09
2018-09-14T22:43:35.345Z,15.05
2018-09-14T22:46:40.312Z,15.06
2018-09-14T22:49:45.261Z,15.04
2018-09-14T22:52:50.377Z,14.99
2018-09-14T22:55:55.321Z,14.96
2018-09-14T22:59:00.324Z,14.93
2018-09-14T23:02:05.385Z,14.87
2018-09-14T23:05:10.340Z,14.76
2018-09-14T23:08:15.278Z,14.60
2018-09-14T23:11:20.210Z,14.57
2018-09-14T23:14:25.165Z,14.58
2018-09-14T23:17:30.129Z,14.58
2018-09-14T23:20:35.118Z,14.50
2018-09-14T23:23:40.049Z,14.40
2018-09-14T23:26:45.080Z,14.33
2018-09-14T23:29:50.024Z,14.26
2018-09-14T23:32:55.014Z,14.14
2018-09-14T23:35:59.924Z,14.09
2018-09-14T23:39:07.293Z,14.02
2018-09-14T23:42:12.233Z,13.89
2018-09-14T23:45:17.188Z,13.87
2018-09-14T23:48:22.130Z,13.86
2018-09-14T23:51:27.077Z,13.83
2018-09-14T23:54:32.016Z,13.86
2018-09-14T23:57:36.993Z,13.84
